sensor_id;sensor_type;location;lat;lon;timestamp;temperature;humidity
11762;DHT22;5938;47.098;15.474;2024-01-11T00:00:11;-7.00;99.90
11762;DHT22;5938;47.098;15.474;2024-01-11T00:04:15;-6.90;99.90
11762;DHT22;5938;47.098;15.474;2024-01-11T00:08:19;-6.90;99.90
11762;DHT22;5938;47.098;15.474;2024-01-11T00:12:22;-6.90;99.90
11762;DHT22;5938;47.098;15.474;2024-01-11T00:16:26;-7.10;99.90
11762;DHT22;5938;47.098;15.474;2024-01-11T00:20:31;-7.00;99.90
11762;DHT22;5938;47.098;15.474;2024-01-11T00:24:34;-7.20;99.90
11762;DHT22;5938;47.098;15.474;2024-01-11T00:28:40;-7.10;99.90
11762;DHT22;5938;47.098;15.474;2024-01-11T00:32:44;-6.90;99.90
11762;DHT22;5938;47.098;15.474;2024-01-11T00:36:49;-7.00;99.90
11762;DHT22;5938;47.098;15.474;2024-01-11T00:40:52;-6.90;99.90
11762;DHT22;5938;47.098;15.474;2024-01-11T00:44:56;-7.10;99.90
11762;DHT22;5938;47.098;15.474;2024-01-11T00:48:59;-7.10;99.90
11762;DHT22;5938;47.098;15.474;2024-01-11T00:53:04;-7.10;99.90
11762;DHT22;5938;47.098;15.474;2024-01-11T00:57:08;-7.10;99.90
11762;DHT22;5938;47.098;15.474;2024-01-11T01:01:11;-7.10;99.90
11762;DHT22;5938;47.098;15.474;2024-01-11T01:05:15;-7.20;99.90
11762;DHT22;5938;47.098;15.474;2024-01-11T01:09:20;-7.20;99.90
11762;DHT22;5938;47.098;15.474;2024-01-11T01:13:23;-7.20;99.90
11762;DHT22;5938;47.098;15.474;2024-01-11T01:17:27;-7.30;99.90
11762;DHT22;5938;47.098;15.474;2024-01-11T01:21:30;-7.10;99.90
11762;DHT22;5938;47.098;15.474;2024-01-11T01:25:35;-7.20;99.90
11762;DHT22;5938;47.098;15.474;2024-01-11T01:29:38;-7.20;99.90
11762;DHT22;5938;47.098;15.474;2024-01-11T01:33:42;-7.20;99.90
11762;DHT22;5938;47.098;15.474;2024-01-11T01:37:45;-7.20;99.90
11762;DHT22;5938;47.098;15.474;2024-01-11T01:41:50;-7.20;99.90
11762;DHT22;5938;47.098;15.474;2024-01-11T01:45:54;-7.20;99.90
11762;DHT22;5938;47.098;15.474;2024-01-11T01:49:57;-7.20;99.90
11762;DHT22;5938;47.098;15.474;2024-01-11T01:54:02;-7.30;99.90
11762;DHT22;5938;47.098;15.474;2024-01-11T01:58:08;-7.30;99.90
11762;DHT22;5938;47.098;15.474;2024-01-11T02:02:12;-7.30;99.90
11762;DHT22;5938;47.098;15.474;2024-01-11T02:06:15;-7.30;99.90
11762;DHT22;5938;47.098;15.474;2024-01-11T02:10:19;-7.40;99.90
11762;DHT22;5938;47.098;15.474;2024-01-11T02:14:24;-7.50;99.90
11762;DHT22;5938;47.098;15.474;2024-01-11T02:18:28;-7.50;99.90
11762;DHT22;5938;47.098;15.474;2024-01-11T02:22:34;-7.40;99.90
11762;DHT22;5938;47.098;15.474;2024-01-11T02:26:58;-7.50;99.90
11762;DHT22;5938;47.098;15.474;2024-01-11T02:31:02;-7.40;99.90
11762;DHT22;5938;47.098;15.474;2024-01-11T02:35:06;-7.60;99.90
11762;DHT22;5938;47.098;15.474;2024-01-11T02:39:10;-7.40;99.90
11762;DHT22;5938;47.098;15.474;2024-01-11T02:43:15;-7.50;99.90
11762;DHT22;5938;47.098;15.474;2024-01-11T02:47:19;-7.50;99.90
11762;DHT22;5938;47.098;15.474;2024-01-11T02:51:23;-7.60;99.90
11762;DHT22;5938;47.098;15.474;2024-01-11T02:55:27;-7.80;99.90
11762;DHT22;5938;47.098;15.474;2024-01-11T02:59:32;-7.50;99.90
11762;DHT22;5938;47.098;15.474;2024-01-11T03:03:35;-7.60;99.90
11762;DHT22;5938;47.098;15.474;2024-01-11T03:07:39;-7.80;99.90
11762;DHT22;5938;47.098;15.474;2024-01-11T03:11:42;-7.70;99.90
11762;DHT22;5938;47.098;15.474;2024-01-11T03:15:47;-7.60;99.90
11762;DHT22;5938;47.098;15.474;2024-01-11T03:19:50;-7.80;99.90
11762;DHT22;5938;47.098;15.474;2024-01-11T03:23:54;-7.70;99.90
11762;DHT22;5938;47.098;15.474;2024-01-11T03:27:58;-7.70;99.90
11762;DHT22;5938;47.098;15.474;2024-01-11T03:32:03;-7.70;99.90
11762;DHT22;5938;47.098;15.474;2024-01-11T03:36:08;-7.80;99.90
11762;DHT22;5938;47.098;15.474;2024-01-11T03:40:12;-7.80;99.90
11762;DHT22;5938;47.098;15.474;2024-01-11T03:44:16;-7.80;99.90
11762;DHT22;5938;47.098;15.474;2024-01-11T03:48:21;-7.90;99.90
11762;DHT22;5938;47.098;15.474;2024-01-11T03:52:24;-7.70;99.90
11762;DHT22;5938;47.098;15.474;2024-01-11T03:56:28;-7.70;99.90
11762;DHT22;5938;47.098;15.474;2024-01-11T04:00:32;-7.80;99.90
11762;DHT22;5938;47.098;15.474;2024-01-11T04:04:37;-7.80;99.90
11762;DHT22;5938;47.098;15.474;2024-01-11T04:08:41;-7.90;99.90
11762;DHT22;5938;47.098;15.474;2024-01-11T04:12:44;-7.80;99.90
11762;DHT22;5938;47.098;15.474;2024-01-11T04:16:48;-7.90;99.90
11762;DHT22;5938;47.098;15.474;2024-01-11T04:20:53;-7.80;99.90
11762;DHT22;5938;47.098;15.474;2024-01-11T04:24:56;-7.80;99.90
11762;DHT22;5938;47.098;15.474;2024-01-11T04:29:00;-7.70;99.90
11762;DHT22;5938;47.098;15.474;2024-01-11T04:33:03;-7.80;99.90
11762;DHT22;5938;47.098;15.474;2024-01-11T04:37:09;-7.90;99.90
11762;DHT22;5938;47.098;15.474;2024-01-11T04:41:13;-7.90;99.90
11762;DHT22;5938;47.098;15.474;2024-01-11T04:45:16;-7.90;99.90
11762;DHT22;5938;47.098;15.474;2024-01-11T04:49:20;-7.90;99.90
11762;DHT22;5938;47.098;15.474;2024-01-11T04:53:25;-7.80;99.90
11762;DHT22;5938;47.098;15.474;2024-01-11T04:57:28;-7.90;99.90
11762;DHT22;5938;47.098;15.474;2024-01-11T05:01:31;-8.00;99.90
11762;DHT22;5938;47.098;15.474;2024-01-11T05:05:35;-8.00;99.90
11762;DHT22;5938;47.098;15.474;2024-01-11T05:09:40;-8.10;99.90
11762;DHT22;5938;47.098;15.474;2024-01-11T05:13:43;-8.20;99.90
11762;DHT22;5938;47.098;15.474;2024-01-11T05:17:51;-8.10;99.90
11762;DHT22;5938;47.098;15.474;2024-01-11T05:21:55;-8.10;99.90
11762;DHT22;5938;47.098;15.474;2024-01-11T05:26:00;-8.20;99.90
11762;DHT22;5938;47.098;15.474;2024-01-11T05:30:05;-8.00;99.90
11762;DHT22;5938;47.098;15.474;2024-01-11T05:34:09;-8.10;99.90
11762;DHT22;5938;47.098;15.474;2024-01-11T05:38:15;-8.30;99.90
11762;DHT22;5938;47.098;15.474;2024-01-11T05:42:20;-8.30;99.90
11762;DHT22;5938;47.098;15.474;2024-01-11T05:46:23;-8.10;99.90
11762;DHT22;5938;47.098;15.474;2024-01-11T05:50:27;-8.20;99.90
11762;DHT22;5938;47.098;15.474;2024-01-11T05:54:30;-8.40;99.90
11762;DHT22;5938;47.098;15.474;2024-01-11T05:58:35;-8.30;99.90
11762;DHT22;5938;47.098;15.474;2024-01-11T06:02:40;-8.30;99.90
11762;DHT22;5938;47.098;15.474;2024-01-11T06:06:43;-8.40;99.90
11762;DHT22;5938;47.098;15.474;2024-01-11T06:10:47;-8.20;99.90
11762;DHT22;5938;47.098;15.474;2024-01-11T06:14:52;-8.10;99.90
11762;DHT22;5938;47.098;15.474;2024-01-11T06:18:57;-8.30;99.90
11762;DHT22;5938;47.098;15.474;2024-01-11T06:23:01;-8.30;99.90
11762;DHT22;5938;47.098;15.474;2024-01-11T06:27:04;-8.30;99.90
11762;DHT22;5938;47.098;15.474;2024-01-11T06:31:11;-8.20;99.90
11762;DHT22;5938;47.098;15.474;2024-01-11T06:35:15;-8.30;99.90
11762;DHT22;5938;47.098;15.474;2024-01-11T06:39:18;-8.10;99.90
11762;DHT22;5938;47.098;15.474;2024-01-11T06:43:22;-8.30;99.90
11762;DHT22;5938;47.098;15.474;2024-01-11T06:47:26;-8.20;99.90
11762;DHT22;5938;47.098;15.474;2024-01-11T06:51:30;-8.30;99.90
11762;DHT22;5938;47.098;15.474;2024-01-11T06:55:34;-8.00;99.90
11762;DHT22;5938;47.098;15.474;2024-01-11T06:59:38;-8.20;99.90
11762;DHT22;5938;47.098;15.474;2024-01-11T07:03:43;-8.00;99.90
11762;DHT22;5938;47.098;15.474;2024-01-11T07:07:47;-7.90;99.90
11762;DHT22;5938;47.098;15.474;2024-01-11T07:11:50;-8.00;99.90
11762;DHT22;5938;47.098;15.474;2024-01-11T07:15:53;-8.20;99.90
11762;DHT22;5938;47.098;15.474;2024-01-11T07:19:59;-7.90;99.90
11762;DHT22;5938;47.098;15.474;2024-01-11T07:24:03;-7.90;99.90
11762;DHT22;5938;47.098;15.474;2024-01-11T07:28:07;-8.20;99.90
11762;DHT22;5938;47.098;15.474;2024-01-11T07:32:10;-7.80;99.90
11762;DHT22;5938;47.098;15.474;2024-01-11T07:36:15;-7.80;99.90
11762;DHT22;5938;47.098;15.474;2024-01-11T07:40:19;-7.70;99.90
11762;DHT22;5938;47.098;15.474;2024-01-11T07:44:23;-7.70;99.90
11762;DHT22;5938;47.098;15.474;2024-01-11T07:48:26;-7.60;99.90
11762;DHT22;5938;47.098;15.474;2024-01-11T07:52:31;-7.60;99.90
11762;DHT22;5938;47.098;15.474;2024-01-11T07:56:35;-7.50;99.90
11762;DHT22;5938;47.098;15.474;2024-01-11T08:00:38;-7.40;99.90
11762;DHT22;5938;47.098;15.474;2024-01-11T08:04:42;-7.40;99.90
11762;DHT22;5938;47.098;15.474;2024-01-11T08:08:49;-7.30;99.90
11762;DHT22;5938;47.098;15.474;2024-01-11T08:12:55;-7.20;99.90
11762;DHT22;5938;47.098;15.474;2024-01-11T08:16:58;-7.20;99.90
11762;DHT22;5938;47.098;15.474;2024-01-11T08:21:04;-7.20;99.90
11762;DHT22;5938;47.098;15.474;2024-01-11T08:25:13;-7.10;99.90
11762;DHT22;5938;47.098;15.474;2024-01-11T08:29:16;-6.70;99.90
11762;DHT22;5938;47.098;15.474;2024-01-11T08:33:21;-6.70;99.90
11762;DHT22;5938;47.098;15.474;2024-01-11T08:37:25;-6.40;99.90
11762;DHT22;5938;47.098;15.474;2024-01-11T08:41:30;-6.30;99.90
11762;DHT22;5938;47.098;15.474;2024-01-11T08:45:33;-6.40;99.90
11762;DHT22;5938;47.098;15.474;2024-01-11T08:49:38;-6.20;99.90
11762;DHT22;5938;47.098;15.474;2024-01-11T08:53:41;-6.20;99.90
11762;DHT22;5938;47.098;15.474;2024-01-11T08:57:46;-6.10;99.90
11762;DHT22;5938;47.098;15.474;2024-01-11T09:01:50;-5.70;99.90
11762;DHT22;5938;47.098;15.474;2024-01-11T09:06:08;-5.50;99.90
11762;DHT22;5938;47.098;15.474;2024-01-11T09:10:12;-5.10;99.90
11762;DHT22;5938;47.098;15.474;2024-01-11T09:14:17;-4.50;99.90
11762;DHT22;5938;47.098;15.474;2024-01-11T09:18:22;-4.20;99.90
11762;DHT22;5938;47.098;15.474;2024-01-11T09:22:26;-3.70;99.90
11762;DHT22;5938;47.098;15.474;2024-01-11T09:26:30;-3.80;99.90
11762;DHT22;5938;47.098;15.474;2024-01-11T09:30:39;-3.80;99.90
11762;DHT22;5938;47.098;15.474;2024-01-11T09:34:43;-4.10;99.90
11762;DHT22;5938;47.098;15.474;2024-01-11T09:38:48;-3.60;99.90
11762;DHT22;5938;47.098;15.474;2024-01-11T09:42:51;-3.70;99.90
11762;DHT22;5938;47.098;15.474;2024-01-11T09:46:58;-3.30;99.90
11762;DHT22;5938;47.098;15.474;2024-01-11T09:51:04;-3.30;99.90
11762;DHT22;5938;47.098;15.474;2024-01-11T09:55:10;-3.00;99.90
11762;DHT22;5938;47.098;15.474;2024-01-11T09:59:14;-2.90;99.90
11762;DHT22;5938;47.098;15.474;2024-01-11T10:03:20;-2.00;99.90
11762;DHT22;5938;47.098;15.474;2024-01-11T10:07:24;-1.50;99.90
11762;DHT22;5938;47.098;15.474;2024-01-11T10:11:28;-1.00;99.90
11762;DHT22;5938;47.098;15.474;2024-01-11T10:15:31;-0.90;99.90
11762;DHT22;5938;47.098;15.474;2024-01-11T10:19:36;-0.80;99.90
11762;DHT22;5938;47.098;15.474;2024-01-11T10:23:40;-0.60;99.90
11762;DHT22;5938;47.098;15.474;2024-01-11T10:27:45;0.40;99.90
11762;DHT22;5938;47.098;15.474;2024-01-11T10:31:48;1.60;99.90
11762;DHT22;5938;47.098;15.474;2024-01-11T10:35:54;2.50;99.90
11762;DHT22;5938;47.098;15.474;2024-01-11T10:39:58;3.30;99.90
11762;DHT22;5938;47.098;15.474;2024-01-11T10:44:06;4.40;99.90
11762;DHT22;5938;47.098;15.474;2024-01-11T10:48:15;5.00;99.90
11762;DHT22;5938;47.098;15.474;2024-01-11T10:52:22;5.70;98.40
11762;DHT22;5938;47.098;15.474;2024-01-11T10:56:30;6.00;95.70
11762;DHT22;5938;47.098;15.474;2024-01-11T11:00:35;6.70;91.60
11762;DHT22;5938;47.098;15.474;2024-01-11T11:04:40;6.20;90.60
11762;DHT22;5938;47.098;15.474;2024-01-11T11:08:47;5.90;89.80
11762;DHT22;5938;47.098;15.474;2024-01-11T11:12:51;6.50;90.10
11762;DHT22;5938;47.098;15.474;2024-01-11T11:16:58;7.40;84.30
11762;DHT22;5938;47.098;15.474;2024-01-11T11:21:08;8.20;82.60
11762;DHT22;5938;47.098;15.474;2024-01-11T11:25:24;9.40;82.70
11762;DHT22;5938;47.098;15.474;2024-01-11T11:29:28;11.40;73.50
11762;DHT22;5938;47.098;15.474;2024-01-11T11:33:31;12.40;70.20
11762;DHT22;5938;47.098;15.474;2024-01-11T11:37:36;13.70;66.60
11762;DHT22;5938;47.098;15.474;2024-01-11T11:41:42;12.70;65.60
11762;DHT22;5938;47.098;15.474;2024-01-11T11:45:47;10.80;67.00
11762;DHT22;5938;47.098;15.474;2024-01-11T11:50:05;9.60;73.50
11762;DHT22;5938;47.098;15.474;2024-01-11T11:54:10;8.00;74.60
11762;DHT22;5938;47.098;15.474;2024-01-11T11:58:21;6.20;76.90
11762;DHT22;5938;47.098;15.474;2024-01-11T12:02:26;4.80;81.50
11762;DHT22;5938;47.098;15.474;2024-01-11T12:06:29;3.70;83.80
11762;DHT22;5938;47.098;15.474;2024-01-11T12:10:33;3.00;87.20
11762;DHT22;5938;47.098;15.474;2024-01-11T12:14:38;2.50;89.50
11762;DHT22;5938;47.098;15.474;2024-01-11T12:18:41;2.30;90.30
11762;DHT22;5938;47.098;15.474;2024-01-11T12:22:45;2.40;90.20
11762;DHT22;5938;47.098;15.474;2024-01-11T12:26:49;2.40;90.00
11762;DHT22;5938;47.098;15.474;2024-01-11T12:30:58;2.30;90.40
11762;DHT22;5938;47.098;15.474;2024-01-11T12:35:02;2.30;90.80
11762;DHT22;5938;47.098;15.474;2024-01-11T12:39:06;2.50;90.00
11762;DHT22;5938;47.098;15.474;2024-01-11T12:43:11;4.70;87.30
11762;DHT22;5938;47.098;15.474;2024-01-11T12:47:17;8.30;79.60
11762;DHT22;5938;47.098;15.474;2024-01-11T12:51:21;11.10;71.50
11762;DHT22;5938;47.098;15.474;2024-01-11T12:55:25;12.20;69.70
11762;DHT22;5938;47.098;15.474;2024-01-11T12:59:28;14.60;67.80
11762;DHT22;5938;47.098;15.474;2024-01-11T13:03:33;17.10;66.20
11762;DHT22;5938;47.098;15.474;2024-01-11T13:07:37;18.30;58.40
11762;DHT22;5938;47.098;15.474;2024-01-11T13:11:41;19.00;58.20
11762;DHT22;5938;47.098;15.474;2024-01-11T13:15:44;19.50;54.10
11762;DHT22;5938;47.098;15.474;2024-01-11T13:19:49;19.80;56.50
11762;DHT22;5938;47.098;15.474;2024-01-11T13:23:53;19.10;52.70
11762;DHT22;5938;47.098;15.474;2024-01-11T13:27:57;19.00;53.70
11762;DHT22;5938;47.098;15.474;2024-01-11T13:32:00;14.80;55.30
11762;DHT22;5938;47.098;15.474;2024-01-11T13:36:08;10.20;62.60
11762;DHT22;5938;47.098;15.474;2024-01-11T13:40:12;7.10;71.40
11762;DHT22;5938;47.098;15.474;2024-01-11T13:44:16;5.10;78.90
11762;DHT22;5938;47.098;15.474;2024-01-11T13:48:22;3.70;81.70
11762;DHT22;5938;47.098;15.474;2024-01-11T13:52:27;2.90;83.70
11762;DHT22;5938;47.098;15.474;2024-01-11T13:56:30;2.40;86.70
11762;DHT22;5938;47.098;15.474;2024-01-11T14:00:34;2.00;88.70
11762;DHT22;5938;47.098;15.474;2024-01-11T14:04:37;1.60;90.30
11762;DHT22;5938;47.098;15.474;2024-01-11T14:08:42;1.20;91.40
11762;DHT22;5938;47.098;15.474;2024-01-11T14:12:46;1.10;92.30
11762;DHT22;5938;47.098;15.474;2024-01-11T14:16:49;0.80;93.00
11762;DHT22;5938;47.098;15.474;2024-01-11T14:20:54;0.20;93.70
11762;DHT22;5938;47.098;15.474;2024-01-11T14:24:59;0.40;94.50
11762;DHT22;5938;47.098;15.474;2024-01-11T14:29:02;0.10;94.90
11762;DHT22;5938;47.098;15.474;2024-01-11T14:33:06;0.20;95.60
11762;DHT22;5938;47.098;15.474;2024-01-11T14:37:10;-0.10;96.10
11762;DHT22;5938;47.098;15.474;2024-01-11T14:41:15;-0.20;96.40
11762;DHT22;5938;47.098;15.474;2024-01-11T14:45:18;-0.10;97.00
11762;DHT22;5938;47.098;15.474;2024-01-11T14:49:22;-0.40;97.30
11762;DHT22;5938;47.098;15.474;2024-01-11T14:53:27;-0.30;97.70
11762;DHT22;5938;47.098;15.474;2024-01-11T14:57:32;-0.40;98.10
11762;DHT22;5938;47.098;15.474;2024-01-11T15:01:35;-0.50;98.20
11762;DHT22;5938;47.098;15.474;2024-01-11T15:05:39;-0.50;98.70
11762;DHT22;5938;47.098;15.474;2024-01-11T15:09:43;-0.60;99.10
11762;DHT22;5938;47.098;15.474;2024-01-11T15:13:47;-1.00;99.80
11762;DHT22;5938;47.098;15.474;2024-01-11T15:17:52;-0.80;99.90
11762;DHT22;5938;47.098;15.474;2024-01-11T15:21:55;-1.00;99.80
11762;DHT22;5938;47.098;15.474;2024-01-11T15:25:59;-1.10;99.90
11762;DHT22;5938;47.098;15.474;2024-01-11T15:30:05;-1.40;99.90
11762;DHT22;5938;47.098;15.474;2024-01-11T15:34:09;-1.60;99.90
11762;DHT22;5938;47.098;15.474;2024-01-11T15:38:13;-1.90;99.90
11762;DHT22;5938;47.098;15.474;2024-01-11T15:42:16;-1.80;99.90
11762;DHT22;5938;47.098;15.474;2024-01-11T15:46:21;-2.10;99.90
11762;DHT22;5938;47.098;15.474;2024-01-11T15:50:25;-2.20;99.90
11762;DHT22;5938;47.098;15.474;2024-01-11T15:54:28;-2.30;99.90
11762;DHT22;5938;47.098;15.474;2024-01-11T15:58:32;-2.30;99.90
11762;DHT22;5938;47.098;15.474;2024-01-11T16:02:37;-2.50;99.90
11762;DHT22;5938;47.098;15.474;2024-01-11T16:06:42;-2.40;99.90
11762;DHT22;5938;47.098;15.474;2024-01-11T16:10:46;-2.60;99.90
11762;DHT22;5938;47.098;15.474;2024-01-11T16:14:50;-2.70;99.90
11762;DHT22;5938;47.098;15.474;2024-01-11T16:18:57;-2.70;99.90
11762;DHT22;5938;47.098;15.474;2024-01-11T16:23:01;-2.80;99.90
11762;DHT22;5938;47.098;15.474;2024-01-11T16:27:08;-3.10;99.90
11762;DHT22;5938;47.098;15.474;2024-01-11T16:31:16;-3.00;99.90
11762;DHT22;5938;47.098;15.474;2024-01-11T16:35:24;-3.10;99.90
11762;DHT22;5938;47.098;15.474;2024-01-11T16:45:16;-3.00;99.90
11762;DHT22;5938;47.098;15.474;2024-01-11T16:49:20;-3.20;99.90
11762;DHT22;5938;47.098;15.474;2024-01-11T16:53:27;-3.20;99.90
11762;DHT22;5938;47.098;15.474;2024-01-11T16:57:31;-3.20;99.90
11762;DHT22;5938;47.098;15.474;2024-01-11T17:01:36;-3.40;99.90
11762;DHT22;5938;47.098;15.474;2024-01-11T17:05:39;-3.40;99.90
11762;DHT22;5938;47.098;15.474;2024-01-11T17:09:45;-3.40;99.90
11762;DHT22;5938;47.098;15.474;2024-01-11T17:13:49;-3.30;99.90
11762;DHT22;5938;47.098;15.474;2024-01-11T17:17:53;-3.60;99.90
11762;DHT22;5938;47.098;15.474;2024-01-11T17:21:59;-3.50;99.90
11762;DHT22;5938;47.098;15.474;2024-01-11T17:26:04;-3.60;99.90
11762;DHT22;5938;47.098;15.474;2024-01-11T17:30:09;-3.80;99.90
11762;DHT22;5938;47.098;15.474;2024-01-11T17:34:14;-3.80;99.90
11762;DHT22;5938;47.098;15.474;2024-01-11T17:38:18;-3.70;99.90
11762;DHT22;5938;47.098;15.474;2024-01-11T17:42:23;-4.00;99.90
11762;DHT22;5938;47.098;15.474;2024-01-11T17:46:27;-3.80;99.90
11762;DHT22;5938;47.098;15.474;2024-01-11T17:50:32;-4.00;99.90
11762;DHT22;5938;47.098;15.474;2024-01-11T17:54:38;-4.10;99.90
11762;DHT22;5938;47.098;15.474;2024-01-11T17:59:04;-3.90;99.90
11762;DHT22;5938;47.098;15.474;2024-01-11T18:10:16;-4.30;99.90
11762;DHT22;5938;47.098;15.474;2024-01-11T18:14:45;-4.10;99.90
11762;DHT22;5938;47.098;15.474;2024-01-11T18:18:53;-4.20;99.90
11762;DHT22;5938;47.098;15.474;2024-01-11T18:23:52;-4.20;99.90
11762;DHT22;5938;47.098;15.474;2024-01-11T18:28:29;-4.30;99.90
11762;DHT22;5938;47.098;15.474;2024-01-11T18:33:29;-4.50;99.90
11762;DHT22;5938;47.098;15.474;2024-01-11T18:38:08;-4.10;99.90
11762;DHT22;5938;47.098;15.474;2024-01-11T18:42:12;-4.30;99.90
11762;DHT22;5938;47.098;15.474;2024-01-11T18:46:16;-4.20;99.90
11762;DHT22;5938;47.098;15.474;2024-01-11T18:50:20;-4.30;99.90
11762;DHT22;5938;47.098;15.474;2024-01-11T18:54:25;-4.20;99.90
11762;DHT22;5938;47.098;15.474;2024-01-11T18:58:29;-4.20;99.90
11762;DHT22;5938;47.098;15.474;2024-01-11T19:02:36;-4.10;99.90
11762;DHT22;5938;47.098;15.474;2024-01-11T19:06:42;-4.20;99.90
11762;DHT22;5938;47.098;15.474;2024-01-11T19:10:48;-4.60;99.90
11762;DHT22;5938;47.098;15.474;2024-01-11T19:14:53;-3.90;99.90
11762;DHT22;5938;47.098;15.474;2024-01-11T19:18:57;-4.00;99.90
11762;DHT22;5938;47.098;15.474;2024-01-11T19:23:02;-3.60;99.90
11762;DHT22;5938;47.098;15.474;2024-01-11T19:27:06;-3.80;99.90
11762;DHT22;5938;47.098;15.474;2024-01-11T19:31:16;-4.00;99.90
11762;DHT22;5938;47.098;15.474;2024-01-11T19:35:20;-3.70;99.90
11762;DHT22;5938;47.098;15.474;2024-01-11T19:39:26;-3.70;99.90
11762;DHT22;5938;47.098;15.474;2024-01-11T19:43:29;-3.50;99.90
11762;DHT22;5938;47.098;15.474;2024-01-11T19:47:33;-3.40;99.90
11762;DHT22;5938;47.098;15.474;2024-01-11T19:51:40;-3.40;99.90
11762;DHT22;5938;47.098;15.474;2024-01-11T19:55:51;-3.10;99.90
11762;DHT22;5938;47.098;15.474;2024-01-11T20:00:04;-3.20;99.90
11762;DHT22;5938;47.098;15.474;2024-01-11T20:04:09;-3.20;99.90
11762;DHT22;5938;47.098;15.474;2024-01-11T20:08:13;-3.10;99.90
11762;DHT22;5938;47.098;15.474;2024-01-11T20:12:19;-3.10;99.90
11762;DHT22;5938;47.098;15.474;2024-01-11T20:16:23;-3.30;99.90
11762;DHT22;5938;47.098;15.474;2024-01-11T20:20:27;-3.30;99.90
11762;DHT22;5938;47.098;15.474;2024-01-11T20:24:31;-3.20;99.90
11762;DHT22;5938;47.098;15.474;2024-01-11T20:28:38;-3.10;99.90
11762;DHT22;5938;47.098;15.474;2024-01-11T20:32:43;-3.10;99.90
11762;DHT22;5938;47.098;15.474;2024-01-11T20:37:25;-2.90;99.90
11762;DHT22;5938;47.098;15.474;2024-01-11T20:47:38;-2.60;99.90
11762;DHT22;5938;47.098;15.474;2024-01-11T20:51:48;-2.50;99.90
11762;DHT22;5938;47.098;15.474;2024-01-11T20:55:55;-2.50;99.90
11762;DHT22;5938;47.098;15.474;2024-01-11T21:00:01;-2.50;99.90
11762;DHT22;5938;47.098;15.474;2024-01-11T21:04:14;-2.60;99.90
11762;DHT22;5938;47.098;15.474;2024-01-11T21:08:19;-2.60;99.90
11762;DHT22;5938;47.098;15.474;2024-01-11T21:12:23;-2.50;99.90
11762;DHT22;5938;47.098;15.474;2024-01-11T21:16:31;-2.50;99.90
11762;DHT22;5938;47.098;15.474;2024-01-11T21:20:37;-2.50;99.90
11762;DHT22;5938;47.098;15.474;2024-01-11T21:24:42;-2.40;99.90
11762;DHT22;5938;47.098;15.474;2024-01-11T21:45:07;-2.40;99.90
11762;DHT22;5938;47.098;15.474;2024-01-11T21:49:11;-2.20;99.90
11762;DHT22;5938;47.098;15.474;2024-01-11T21:53:22;-2.30;99.90
11762;DHT22;5938;47.098;15.474;2024-01-11T21:57:33;-2.20;99.90
11762;DHT22;5938;47.098;15.474;2024-01-11T22:01:40;-2.20;99.90
11762;DHT22;5938;47.098;15.474;2024-01-11T22:05:44;-2.10;99.90
11762;DHT22;5938;47.098;15.474;2024-01-11T22:09:48;-2.10;99.90
11762;DHT22;5938;47.098;15.474;2024-01-11T22:13:53;-2.30;99.90
11762;DHT22;5938;47.098;15.474;2024-01-11T22:17:56;-2.20;99.90
11762;DHT22;5938;47.098;15.474;2024-01-11T22:22:00;-2.20;99.90
11762;DHT22;5938;47.098;15.474;2024-01-11T22:26:05;-2.10;99.90
11762;DHT22;5938;47.098;15.474;2024-01-11T22:30:11;-2.10;99.90
11762;DHT22;5938;47.098;15.474;2024-01-11T22:34:15;-1.90;99.90
11762;DHT22;5938;47.098;15.474;2024-01-11T22:38:19;-1.90;99.90
11762;DHT22;5938;47.098;15.474;2024-01-11T22:42:23;-2.00;99.90
11762;DHT22;5938;47.098;15.474;2024-01-11T22:46:28;-1.90;99.90
11762;DHT22;5938;47.098;15.474;2024-01-11T22:50:32;-2.00;99.90
11762;DHT22;5938;47.098;15.474;2024-01-11T22:54:36;-1.90;99.90
11762;DHT22;5938;47.098;15.474;2024-01-11T22:58:42;-2.00;99.90
11762;DHT22;5938;47.098;15.474;2024-01-11T23:02:48;-2.00;99.90
11762;DHT22;5938;47.098;15.474;2024-01-11T23:06:52;-2.00;99.90
11762;DHT22;5938;47.098;15.474;2024-01-11T23:10:56;-2.00;99.90
11762;DHT22;5938;47.098;15.474;2024-01-11T23:14:59;-2.00;99.90
11762;DHT22;5938;47.098;15.474;2024-01-11T23:19:04;-2.20;99.90
11762;DHT22;5938;47.098;15.474;2024-01-11T23:23:08;-2.20;99.90
11762;DHT22;5938;47.098;15.474;2024-01-11T23:27:11;-2.20;99.90
11762;DHT22;5938;47.098;15.474;2024-01-11T23:31:14;-2.40;99.90
11762;DHT22;5938;47.098;15.474;2024-01-11T23:35:19;-2.50;99.90
11762;DHT22;5938;47.098;15.474;2024-01-11T23:39:23;-2.80;99.90
11762;DHT22;5938;47.098;15.474;2024-01-11T23:43:26;-2.70;99.90
11762;DHT22;5938;47.098;15.474;2024-01-11T23:47:29;-2.80;99.90
11762;DHT22;5938;47.098;15.474;2024-01-11T23:51:36;-2.50;99.90
11762;DHT22;5938;47.098;15.474;2024-01-11T23:55:40;-2.70;99.90
11762;DHT22;5938;47.098;15.474;2024-01-11T23:59:43;-2.70;99.90
